sensor_id;sensor_type;location;lat;lon;timestamp;temperature;humidity
680;DHT22;322;48.846;9.230;2024-03-25T00:00:39;5.90;99.90
680;DHT22;322;48.846;9.230;2024-03-25T00:03:07;6.00;99.90
680;DHT22;322;48.846;9.230;2024-03-25T00:05:34;5.90;99.90
680;DHT22;322;48.846;9.230;2024-03-25T00:08:02;5.90;99.90
680;DHT22;322;48.846;9.230;2024-03-25T00:10:28;5.90;99.90
680;DHT22;322;48.846;9.230;2024-03-25T00:12:55;6.00;99.90
680;DHT22;322;48.846;9.230;2024-03-25T00:15:22;6.00;99.90
680;DHT22;322;48.846;9.230;2024-03-25T00:17:50;5.90;99.90
680;DHT22;322;48.846;9.230;2024-03-25T00:20:17;5.90;99.90
680;DHT22;322;48.846;9.230;2024-03-25T00:22:44;5.90;99.90
680;DHT22;322;48.846;9.230;2024-03-25T00:25:10;5.90;99.90
680;DHT22;322;48.846;9.230;2024-03-25T00:27:37;5.90;99.90
680;DHT22;322;48.846;9.230;2024-03-25T00:30:05;5.90;99.90
680;DHT22;322;48.846;9.230;2024-03-25T00:32:32;5.90;99.90
680;DHT22;322;48.846;9.230;2024-03-25T00:34:58;5.80;99.90
680;DHT22;322;48.846;9.230;2024-03-25T00:37:26;5.80;99.90
680;DHT22;322;48.846;9.230;2024-03-25T00:39:52;5.70;99.90
680;DHT22;322;48.846;9.230;2024-03-25T00:42:19;5.70;99.90
680;DHT22;322;48.846;9.230;2024-03-25T00:44:45;5.70;99.90
680;DHT22;322;48.846;9.230;2024-03-25T00:47:12;5.70;99.90
680;DHT22;322;48.846;9.230;2024-03-25T00:49:38;5.70;99.90
680;DHT22;322;48.846;9.230;2024-03-25T00:52:05;5.70;99.90
680;DHT22;322;48.846;9.230;2024-03-25T00:54:33;5.70;99.90
680;DHT22;322;48.846;9.230;2024-03-25T00:57:00;5.60;99.90
680;DHT22;322;48.846;9.230;2024-03-25T00:59:26;5.50;99.90
680;DHT22;322;48.846;9.230;2024-03-25T01:01:53;5.60;99.90
680;DHT22;322;48.846;9.230;2024-03-25T01:04:19;5.60;99.90
680;DHT22;322;48.846;9.230;2024-03-25T01:06:46;5.60;99.90
680;DHT22;322;48.846;9.230;2024-03-25T01:09:12;5.60;99.90
680;DHT22;322;48.846;9.230;2024-03-25T01:11:41;5.70;99.90
680;DHT22;322;48.846;9.230;2024-03-25T01:14:07;5.70;99.90
680;DHT22;322;48.846;9.230;2024-03-25T01:16:34;5.70;99.90
680;DHT22;322;48.846;9.230;2024-03-25T01:19:00;5.60;99.90
680;DHT22;322;48.846;9.230;2024-03-25T01:21:27;5.70;99.90
680;DHT22;322;48.846;9.230;2024-03-25T01:23:53;5.70;99.90
680;DHT22;322;48.846;9.230;2024-03-25T01:26:20;5.70;99.90
680;DHT22;322;48.846;9.230;2024-03-25T01:28:47;5.70;99.90
680;DHT22;322;48.846;9.230;2024-03-25T01:31:14;5.70;99.90
680;DHT22;322;48.846;9.230;2024-03-25T01:33:40;5.70;99.90
680;DHT22;322;48.846;9.230;2024-03-25T01:36:08;5.70;99.90
680;DHT22;322;48.846;9.230;2024-03-25T01:38:34;5.70;99.90
680;DHT22;322;48.846;9.230;2024-03-25T01:41:07;5.70;99.90
680;DHT22;322;48.846;9.230;2024-03-25T01:43:33;5.70;99.90
680;DHT22;322;48.846;9.230;2024-03-25T01:46:02;5.80;99.90
680;DHT22;322;48.846;9.230;2024-03-25T01:48:28;5.70;99.90
680;DHT22;322;48.846;9.230;2024-03-25T01:50:56;5.70;99.90
680;DHT22;322;48.846;9.230;2024-03-25T01:53:24;5.70;99.90
680;DHT22;322;48.846;9.230;2024-03-25T01:55:54;5.70;99.90
680;DHT22;322;48.846;9.230;2024-03-25T01:58:22;5.70;99.90
680;DHT22;322;48.846;9.230;2024-03-25T02:00:52;5.70;99.90
680;DHT22;322;48.846;9.230;2024-03-25T02:03:20;5.70;99.90
680;DHT22;322;48.846;9.230;2024-03-25T02:05:51;5.70;99.90
680;DHT22;322;48.846;9.230;2024-03-25T02:08:19;5.70;99.90
680;DHT22;322;48.846;9.230;2024-03-25T02:10:46;5.60;99.90
680;DHT22;322;48.846;9.230;2024-03-25T02:13:13;5.60;99.90
680;DHT22;322;48.846;9.230;2024-03-25T02:15:41;5.60;99.90
680;DHT22;322;48.846;9.230;2024-03-25T02:18:07;5.70;99.90
680;DHT22;322;48.846;9.230;2024-03-25T02:20:35;5.60;99.90
680;DHT22;322;48.846;9.230;2024-03-25T02:23:02;5.60;99.90
680;DHT22;322;48.846;9.230;2024-03-25T02:25:30;5.60;99.90
680;DHT22;322;48.846;9.230;2024-03-25T02:27:59;5.60;99.90
680;DHT22;322;48.846;9.230;2024-03-25T02:30:26;5.70;99.90
680;DHT22;322;48.846;9.230;2024-03-25T02:32:52;5.70;99.90
680;DHT22;322;48.846;9.230;2024-03-25T02:35:21;5.60;99.90
680;DHT22;322;48.846;9.230;2024-03-25T02:37:50;5.60;99.90
680;DHT22;322;48.846;9.230;2024-03-25T02:40:18;5.60;99.90
680;DHT22;322;48.846;9.230;2024-03-25T02:42:45;5.60;99.90
680;DHT22;322;48.846;9.230;2024-03-25T02:45:14;5.50;99.90
680;DHT22;322;48.846;9.230;2024-03-25T02:47:40;5.70;99.90
680;DHT22;322;48.846;9.230;2024-03-25T02:50:07;5.70;99.90
680;DHT22;322;48.846;9.230;2024-03-25T02:52:33;5.60;99.90
680;DHT22;322;48.846;9.230;2024-03-25T02:55:01;5.70;99.90
680;DHT22;322;48.846;9.230;2024-03-25T02:57:27;5.70;99.90
680;DHT22;322;48.846;9.230;2024-03-25T02:59:53;5.70;99.90
680;DHT22;322;48.846;9.230;2024-03-25T03:02:21;5.70;99.90
680;DHT22;322;48.846;9.230;2024-03-25T03:04:48;5.70;99.90
680;DHT22;322;48.846;9.230;2024-03-25T03:07:14;5.70;99.90
680;DHT22;322;48.846;9.230;2024-03-25T03:09:41;5.60;99.90
680;DHT22;322;48.846;9.230;2024-03-25T03:12:07;5.60;99.90
680;DHT22;322;48.846;9.230;2024-03-25T03:14:34;5.60;99.90
680;DHT22;322;48.846;9.230;2024-03-25T03:17:00;5.60;99.90
680;DHT22;322;48.846;9.230;2024-03-25T03:19:32;5.40;99.90
680;DHT22;322;48.846;9.230;2024-03-25T03:21:58;5.40;99.90
680;DHT22;322;48.846;9.230;2024-03-25T03:24:25;5.30;99.90
680;DHT22;322;48.846;9.230;2024-03-25T03:26:51;5.20;99.90
680;DHT22;322;48.846;9.230;2024-03-25T03:29:20;5.20;99.90
680;DHT22;322;48.846;9.230;2024-03-25T03:31:46;5.00;99.90
680;DHT22;322;48.846;9.230;2024-03-25T03:34:13;5.00;99.90
680;DHT22;322;48.846;9.230;2024-03-25T03:36:41;5.00;99.90
680;DHT22;322;48.846;9.230;2024-03-25T03:39:08;5.00;99.90
680;DHT22;322;48.846;9.230;2024-03-25T03:41:34;5.10;99.90
680;DHT22;322;48.846;9.230;2024-03-25T03:44:02;5.10;99.90
680;DHT22;322;48.846;9.230;2024-03-25T03:46:28;5.30;99.90
680;DHT22;322;48.846;9.230;2024-03-25T03:48:55;5.30;99.90
680;DHT22;322;48.846;9.230;2024-03-25T03:51:21;5.40;99.90
680;DHT22;322;48.846;9.230;2024-03-25T03:53:50;5.40;99.90
680;DHT22;322;48.846;9.230;2024-03-25T03:56:15;5.30;99.90
680;DHT22;322;48.846;9.230;2024-03-25T03:58:43;5.40;99.90
680;DHT22;322;48.846;9.230;2024-03-25T04:01:14;5.40;99.90
680;DHT22;322;48.846;9.230;2024-03-25T04:03:42;5.40;99.90
680;DHT22;322;48.846;9.230;2024-03-25T04:06:09;5.50;99.90
680;DHT22;322;48.846;9.230;2024-03-25T04:08:37;5.40;99.90
680;DHT22;322;48.846;9.230;2024-03-25T04:11:04;5.50;99.90
680;DHT22;322;48.846;9.230;2024-03-25T04:13:33;5.40;99.90
680;DHT22;322;48.846;9.230;2024-03-25T04:16:01;5.30;99.90
680;DHT22;322;48.846;9.230;2024-03-25T04:18:30;5.30;99.90
680;DHT22;322;48.846;9.230;2024-03-25T04:20:56;5.40;99.90
680;DHT22;322;48.846;9.230;2024-03-25T04:23:23;5.40;99.90
680;DHT22;322;48.846;9.230;2024-03-25T04:25:49;5.50;99.90
680;DHT22;322;48.846;9.230;2024-03-25T04:28:18;5.50;99.90
680;DHT22;322;48.846;9.230;2024-03-25T04:30:50;5.40;99.90
680;DHT22;322;48.846;9.230;2024-03-25T04:33:17;5.50;99.90
680;DHT22;322;48.846;9.230;2024-03-25T04:35:45;5.40;99.90
680;DHT22;322;48.846;9.230;2024-03-25T04:38:12;5.50;99.90
680;DHT22;322;48.846;9.230;2024-03-25T04:40:38;5.40;99.90
680;DHT22;322;48.846;9.230;2024-03-25T04:43:04;5.40;99.90
680;DHT22;322;48.846;9.230;2024-03-25T04:45:32;5.30;99.90
680;DHT22;322;48.846;9.230;2024-03-25T04:47:58;5.30;99.90
680;DHT22;322;48.846;9.230;2024-03-25T04:50:24;5.30;99.90
680;DHT22;322;48.846;9.230;2024-03-25T04:52:50;5.20;99.90
680;DHT22;322;48.846;9.230;2024-03-25T04:55:17;5.20;99.90
680;DHT22;322;48.846;9.230;2024-03-25T04:57:43;5.20;99.90
680;DHT22;322;48.846;9.230;2024-03-25T05:00:10;5.20;99.90
680;DHT22;322;48.846;9.230;2024-03-25T05:02:38;5.10;99.90
680;DHT22;322;48.846;9.230;2024-03-25T05:05:05;5.00;99.90
680;DHT22;322;48.846;9.230;2024-03-25T05:07:31;4.90;99.90
680;DHT22;322;48.846;9.230;2024-03-25T05:09:57;4.80;99.90
680;DHT22;322;48.846;9.230;2024-03-25T05:12:23;4.70;99.90
680;DHT22;322;48.846;9.230;2024-03-25T05:14:49;4.50;99.90
680;DHT22;322;48.846;9.230;2024-03-25T05:17:15;4.40;99.90
680;DHT22;322;48.846;9.230;2024-03-25T05:19:43;4.40;99.90
680;DHT22;322;48.846;9.230;2024-03-25T05:22:09;4.20;99.90
680;DHT22;322;48.846;9.230;2024-03-25T05:24:35;4.20;99.90
680;DHT22;322;48.846;9.230;2024-03-25T05:27:01;4.30;99.90
680;DHT22;322;48.846;9.230;2024-03-25T05:29:27;4.30;99.90
680;DHT22;322;48.846;9.230;2024-03-25T05:31:58;4.30;99.90
680;DHT22;322;48.846;9.230;2024-03-25T05:34:25;4.30;99.90
680;DHT22;322;48.846;9.230;2024-03-25T05:36:52;4.40;99.90
680;DHT22;322;48.846;9.230;2024-03-25T05:39:19;4.50;99.90
680;DHT22;322;48.846;9.230;2024-03-25T05:41:45;4.50;99.90
680;DHT22;322;48.846;9.230;2024-03-25T05:44:11;4.50;99.90
680;DHT22;322;48.846;9.230;2024-03-25T05:46:37;4.50;99.90
680;DHT22;322;48.846;9.230;2024-03-25T05:49:04;4.50;99.90
680;DHT22;322;48.846;9.230;2024-03-25T05:51:31;4.50;99.90
680;DHT22;322;48.846;9.230;2024-03-25T05:53:59;4.50;99.90
680;DHT22;322;48.846;9.230;2024-03-25T05:56:25;4.40;99.90
680;DHT22;322;48.846;9.230;2024-03-25T05:58:51;4.40;99.90
680;DHT22;322;48.846;9.230;2024-03-25T06:01:17;4.30;99.90
680;DHT22;322;48.846;9.230;2024-03-25T06:03:43;4.20;99.90
680;DHT22;322;48.846;9.230;2024-03-25T06:06:09;4.10;99.90
680;DHT22;322;48.846;9.230;2024-03-25T06:08:35;4.10;99.90
680;DHT22;322;48.846;9.230;2024-03-25T06:11:03;4.20;99.90
680;DHT22;322;48.846;9.230;2024-03-25T06:13:29;4.30;99.90
680;DHT22;322;48.846;9.230;2024-03-25T06:15:55;4.40;99.90
680;DHT22;322;48.846;9.230;2024-03-25T06:18:21;4.50;99.90
680;DHT22;322;48.846;9.230;2024-03-25T06:20:47;4.50;99.90
680;DHT22;322;48.846;9.230;2024-03-25T06:23:22;4.40;99.90
680;DHT22;322;48.846;9.230;2024-03-25T06:25:49;4.30;99.90
680;DHT22;322;48.846;9.230;2024-03-25T06:28:17;4.30;99.90
680;DHT22;322;48.846;9.230;2024-03-25T06:30:44;4.20;99.90
680;DHT22;322;48.846;9.230;2024-03-25T06:33:29;4.30;99.90
680;DHT22;322;48.846;9.230;2024-03-25T06:36:13;4.30;99.90
680;DHT22;322;48.846;9.230;2024-03-25T06:38:39;4.40;99.90
680;DHT22;322;48.846;9.230;2024-03-25T06:41:05;4.50;99.90
680;DHT22;322;48.846;9.230;2024-03-25T06:43:33;4.60;99.90
680;DHT22;322;48.846;9.230;2024-03-25T06:45:59;4.60;99.90
680;DHT22;322;48.846;9.230;2024-03-25T06:48:25;4.60;99.90
680;DHT22;322;48.846;9.230;2024-03-25T06:50:55;4.60;99.90
680;DHT22;322;48.846;9.230;2024-03-25T06:53:21;4.70;99.90
680;DHT22;322;48.846;9.230;2024-03-25T06:55:54;4.80;99.90
680;DHT22;322;48.846;9.230;2024-03-25T06:58:21;4.90;99.90
680;DHT22;322;48.846;9.230;2024-03-25T07:00:49;5.00;99.90
680;DHT22;322;48.846;9.230;2024-03-25T07:03:15;5.10;99.90
680;DHT22;322;48.846;9.230;2024-03-25T07:05:44;5.20;99.90
680;DHT22;322;48.846;9.230;2024-03-25T07:08:10;5.50;99.90
680;DHT22;322;48.846;9.230;2024-03-25T07:10:36;5.70;99.90
680;DHT22;322;48.846;9.230;2024-03-25T07:13:02;5.90;99.90
680;DHT22;322;48.846;9.230;2024-03-25T07:15:28;6.10;99.90
680;DHT22;322;48.846;9.230;2024-03-25T07:17:56;6.30;99.90
680;DHT22;322;48.846;9.230;2024-03-25T07:20:22;6.50;99.90
680;DHT22;322;48.846;9.230;2024-03-25T07:22:48;6.50;99.90
680;DHT22;322;48.846;9.230;2024-03-25T07:25:14;6.70;99.90
680;DHT22;322;48.846;9.230;2024-03-25T07:27:41;6.70;99.90
680;DHT22;322;48.846;9.230;2024-03-25T07:30:07;6.80;99.90
680;DHT22;322;48.846;9.230;2024-03-25T07:32:33;7.00;99.90
680;DHT22;322;48.846;9.230;2024-03-25T07:35:01;7.20;99.90
680;DHT22;322;48.846;9.230;2024-03-25T07:37:27;7.60;99.90
680;DHT22;322;48.846;9.230;2024-03-25T07:39:53;7.70;99.90
680;DHT22;322;48.846;9.230;2024-03-25T07:42:19;7.60;99.90
680;DHT22;322;48.846;9.230;2024-03-25T07:44:45;7.50;99.90
680;DHT22;322;48.846;9.230;2024-03-25T07:47:11;7.40;99.90
680;DHT22;322;48.846;9.230;2024-03-25T07:49:37;7.30;99.90
680;DHT22;322;48.846;9.230;2024-03-25T07:52:05;7.40;99.90
680;DHT22;322;48.846;9.230;2024-03-25T07:54:31;7.40;99.90
680;DHT22;322;48.846;9.230;2024-03-25T07:56:57;7.40;99.90
680;DHT22;322;48.846;9.230;2024-03-25T07:59:24;7.60;99.90
680;DHT22;322;48.846;9.230;2024-03-25T08:01:50;7.90;99.90
680;DHT22;322;48.846;9.230;2024-03-25T08:04:16;8.00;99.90
680;DHT22;322;48.846;9.230;2024-03-25T08:06:42;8.00;99.90
680;DHT22;322;48.846;9.230;2024-03-25T08:09:10;8.10;99.90
680;DHT22;322;48.846;9.230;2024-03-25T08:11:36;8.20;99.90
680;DHT22;322;48.846;9.230;2024-03-25T08:14:02;8.00;99.90
680;DHT22;322;48.846;9.230;2024-03-25T08:16:28;8.00;99.90
680;DHT22;322;48.846;9.230;2024-03-25T08:18:54;8.00;99.90
680;DHT22;322;48.846;9.230;2024-03-25T08:21:20;8.00;99.90
680;DHT22;322;48.846;9.230;2024-03-25T08:23:46;7.90;99.90
680;DHT22;322;48.846;9.230;2024-03-25T08:26:14;8.00;99.90
680;DHT22;322;48.846;9.230;2024-03-25T08:28:40;8.10;99.90
680;DHT22;322;48.846;9.230;2024-03-25T08:31:06;8.40;99.90
680;DHT22;322;48.846;9.230;2024-03-25T08:33:32;8.70;99.90
680;DHT22;322;48.846;9.230;2024-03-25T08:35:58;9.00;99.90
680;DHT22;322;48.846;9.230;2024-03-25T08:38:24;9.20;99.90
680;DHT22;322;48.846;9.230;2024-03-25T08:40:51;9.40;99.90
680;DHT22;322;48.846;9.230;2024-03-25T08:43:18;9.70;99.90
680;DHT22;322;48.846;9.230;2024-03-25T08:45:45;9.80;99.90
680;DHT22;322;48.846;9.230;2024-03-25T08:48:11;9.60;97.90
680;DHT22;322;48.846;9.230;2024-03-25T08:50:37;9.40;97.00
680;DHT22;322;48.846;9.230;2024-03-25T08:53:04;9.30;98.50
680;DHT22;322;48.846;9.230;2024-03-25T08:55:30;9.30;97.10
680;DHT22;322;48.846;9.230;2024-03-25T08:57:56;9.20;95.00
680;DHT22;322;48.846;9.230;2024-03-25T09:00:25;9.00;95.40
680;DHT22;322;48.846;9.230;2024-03-25T09:02:51;9.10;94.40
680;DHT22;322;48.846;9.230;2024-03-25T09:05:17;9.20;93.20
680;DHT22;322;48.846;9.230;2024-03-25T09:07:44;9.50;93.30
680;DHT22;322;48.846;9.230;2024-03-25T09:10:11;9.60;93.50
680;DHT22;322;48.846;9.230;2024-03-25T09:12:55;9.50;92.00
680;DHT22;322;48.846;9.230;2024-03-25T09:15:21;9.50;91.70
680;DHT22;322;48.846;9.230;2024-03-25T09:17:49;9.70;90.40
680;DHT22;322;48.846;9.230;2024-03-25T09:20:15;9.50;90.50
680;DHT22;322;48.846;9.230;2024-03-25T09:22:44;9.60;90.30
680;DHT22;322;48.846;9.230;2024-03-25T09:25:10;10.00;87.10
680;DHT22;322;48.846;9.230;2024-03-25T09:27:36;10.40;87.10
680;DHT22;322;48.846;9.230;2024-03-25T09:30:03;10.80;85.30
680;DHT22;322;48.846;9.230;2024-03-25T09:32:30;11.30;84.10
680;DHT22;322;48.846;9.230;2024-03-25T09:34:57;11.50;78.40
680;DHT22;322;48.846;9.230;2024-03-25T09:37:24;11.40;78.40
680;DHT22;322;48.846;9.230;2024-03-25T09:39:50;11.50;80.10
680;DHT22;322;48.846;9.230;2024-03-25T09:42:22;11.40;77.40
680;DHT22;322;48.846;9.230;2024-03-25T09:44:51;11.50;77.10
680;DHT22;322;48.846;9.230;2024-03-25T09:47:17;11.70;76.30
680;DHT22;322;48.846;9.230;2024-03-25T09:49:44;11.60;73.20
680;DHT22;322;48.846;9.230;2024-03-25T09:52:12;11.40;73.90
680;DHT22;322;48.846;9.230;2024-03-25T09:54:39;11.00;71.70
680;DHT22;322;48.846;9.230;2024-03-25T09:57:06;11.00;73.10
680;DHT22;322;48.846;9.230;2024-03-25T09:59:32;11.40;74.10
680;DHT22;322;48.846;9.230;2024-03-25T10:01:59;11.30;67.50
680;DHT22;322;48.846;9.230;2024-03-25T10:04:26;11.30;69.10
680;DHT22;322;48.846;9.230;2024-03-25T10:06:53;11.50;70.50
680;DHT22;322;48.846;9.230;2024-03-25T10:09:20;11.90;65.80
680;DHT22;322;48.846;9.230;2024-03-25T10:11:47;12.20;68.90
680;DHT22;322;48.846;9.230;2024-03-25T10:14:15;12.10;67.10
680;DHT22;322;48.846;9.230;2024-03-25T10:16:41;12.10;67.60
680;DHT22;322;48.846;9.230;2024-03-25T10:19:08;12.00;63.80
680;DHT22;322;48.846;9.230;2024-03-25T10:21:34;12.00;62.30
680;DHT22;322;48.846;9.230;2024-03-25T10:24:00;12.10;61.70
680;DHT22;322;48.846;9.230;2024-03-25T10:26:29;12.00;60.70
680;DHT22;322;48.846;9.230;2024-03-25T10:29:02;12.40;63.40
680;DHT22;322;48.846;9.230;2024-03-25T10:31:29;12.90;63.50
680;DHT22;322;48.846;9.230;2024-03-25T10:33:55;12.70;59.90
680;DHT22;322;48.846;9.230;2024-03-25T10:36:22;12.00;58.00
680;DHT22;322;48.846;9.230;2024-03-25T10:38:49;11.50;58.50
680;DHT22;322;48.846;9.230;2024-03-25T10:41:18;11.00;58.40
680;DHT22;322;48.846;9.230;2024-03-25T10:43:47;10.90;59.50
680;DHT22;322;48.846;9.230;2024-03-25T10:46:18;11.30;58.50
680;DHT22;322;48.846;9.230;2024-03-25T10:49:01;12.00;57.10
680;DHT22;322;48.846;9.230;2024-03-25T10:51:29;12.80;56.30
680;DHT22;322;48.846;9.230;2024-03-25T10:53:58;13.10;56.50
680;DHT22;322;48.846;9.230;2024-03-25T10:56:25;13.30;56.60
680;DHT22;322;48.846;9.230;2024-03-25T10:58:52;12.80;53.90
680;DHT22;322;48.846;9.230;2024-03-25T11:01:20;12.30;56.50
680;DHT22;322;48.846;9.230;2024-03-25T11:03:47;11.90;56.50
680;DHT22;322;48.846;9.230;2024-03-25T11:06:14;11.70;60.10
680;DHT22;322;48.846;9.230;2024-03-25T11:08:40;11.50;59.70
680;DHT22;322;48.846;9.230;2024-03-25T11:11:06;12.00;60.10
680;DHT22;322;48.846;9.230;2024-03-25T11:13:33;13.10;59.20
680;DHT22;322;48.846;9.230;2024-03-25T11:16:01;14.10;56.40
680;DHT22;322;48.846;9.230;2024-03-25T11:18:27;15.00;59.40
680;DHT22;322;48.846;9.230;2024-03-25T11:21:00;15.90;56.50
680;DHT22;322;48.846;9.230;2024-03-25T11:23:26;16.80;56.30
680;DHT22;322;48.846;9.230;2024-03-25T11:25:55;17.20;53.90
680;DHT22;322;48.846;9.230;2024-03-25T11:28:27;18.00;51.50
680;DHT22;322;48.846;9.230;2024-03-25T11:30:53;17.80;48.30
680;DHT22;322;48.846;9.230;2024-03-25T11:33:21;16.70;48.10
680;DHT22;322;48.846;9.230;2024-03-25T11:35:47;16.50;53.60
680;DHT22;322;48.846;9.230;2024-03-25T11:38:14;17.40;53.40
680;DHT22;322;48.846;9.230;2024-03-25T11:40:43;18.20;52.30
680;DHT22;322;48.846;9.230;2024-03-25T11:43:10;18.80;49.40
680;DHT22;322;48.846;9.230;2024-03-25T11:45:36;19.60;47.10
680;DHT22;322;48.846;9.230;2024-03-25T11:48:03;19.50;45.20
680;DHT22;322;48.846;9.230;2024-03-25T11:50:31;18.60;46.00
680;DHT22;322;48.846;9.230;2024-03-25T11:53:03;17.90;51.00
680;DHT22;322;48.846;9.230;2024-03-25T11:55:30;18.80;51.50
680;DHT22;322;48.846;9.230;2024-03-25T11:57:57;19.30;48.30
680;DHT22;322;48.846;9.230;2024-03-25T12:00:24;19.70;48.90
680;DHT22;322;48.846;9.230;2024-03-25T12:02:50;20.10;47.70
680;DHT22;322;48.846;9.230;2024-03-25T12:05:17;20.30;44.90
680;DHT22;322;48.846;9.230;2024-03-25T12:07:44;20.60;46.10
680;DHT22;322;48.846;9.230;2024-03-25T12:10:10;21.30;45.10
680;DHT22;322;48.846;9.230;2024-03-25T12:12:55;21.80;44.10
680;DHT22;322;48.846;9.230;2024-03-25T12:15:21;22.10;42.90
680;DHT22;322;48.846;9.230;2024-03-25T12:17:48;22.50;43.80
680;DHT22;322;48.846;9.230;2024-03-25T12:20:14;22.10;41.80
680;DHT22;322;48.846;9.230;2024-03-25T12:22:41;22.30;41.50
680;DHT22;322;48.846;9.230;2024-03-25T12:25:08;22.70;42.50
680;DHT22;322;48.846;9.230;2024-03-25T12:27:37;22.30;43.90
680;DHT22;322;48.846;9.230;2024-03-25T12:30:05;22.40;44.60
680;DHT22;322;48.846;9.230;2024-03-25T12:32:36;22.80;41.60
680;DHT22;322;48.846;9.230;2024-03-25T12:35:03;22.90;41.20
680;DHT22;322;48.846;9.230;2024-03-25T12:37:29;22.60;40.30
680;DHT22;322;48.846;9.230;2024-03-25T12:39:56;21.10;42.00
680;DHT22;322;48.846;9.230;2024-03-25T12:42:23;20.60;40.40
680;DHT22;322;48.846;9.230;2024-03-25T12:44:50;20.90;45.30
680;DHT22;322;48.846;9.230;2024-03-25T12:47:16;21.70;42.70
680;DHT22;322;48.846;9.230;2024-03-25T12:49:42;22.60;41.80
680;DHT22;322;48.846;9.230;2024-03-25T12:52:08;23.10;40.00
680;DHT22;322;48.846;9.230;2024-03-25T12:54:34;23.50;40.50
680;DHT22;322;48.846;9.230;2024-03-25T12:57:01;24.00;38.90
680;DHT22;322;48.846;9.230;2024-03-25T12:59:28;24.10;37.00
680;DHT22;322;48.846;9.230;2024-03-25T13:01:54;24.10;39.80
680;DHT22;322;48.846;9.230;2024-03-25T13:04:20;24.00;37.20
680;DHT22;322;48.846;9.230;2024-03-25T13:06:47;23.80;39.10
680;DHT22;322;48.846;9.230;2024-03-25T13:09:13;23.30;38.50
680;DHT22;322;48.846;9.230;2024-03-25T13:11:39;22.20;43.10
680;DHT22;322;48.846;9.230;2024-03-25T13:14:05;22.30;42.20
680;DHT22;322;48.846;9.230;2024-03-25T13:16:33;21.80;41.10
680;DHT22;322;48.846;9.230;2024-03-25T13:18:59;21.30;42.50
680;DHT22;322;48.846;9.230;2024-03-25T13:21:26;21.60;41.40
680;DHT22;322;48.846;9.230;2024-03-25T13:23:52;22.20;41.10
680;DHT22;322;48.846;9.230;2024-03-25T13:26:18;22.70;40.00
680;DHT22;322;48.846;9.230;2024-03-25T13:28:44;23.40;40.40
680;DHT22;322;48.846;9.230;2024-03-25T13:31:11;23.40;39.60
680;DHT22;322;48.846;9.230;2024-03-25T13:33:38;23.70;39.80
680;DHT22;322;48.846;9.230;2024-03-25T13:36:05;24.00;38.70
680;DHT22;322;48.846;9.230;2024-03-25T13:38:31;24.10;39.80
680;DHT22;322;48.846;9.230;2024-03-25T13:40:58;23.40;38.70
680;DHT22;322;48.846;9.230;2024-03-25T13:43:24;23.40;38.70
680;DHT22;322;48.846;9.230;2024-03-25T13:45:51;23.20;38.40
680;DHT22;322;48.846;9.230;2024-03-25T13:48:17;22.70;40.00
680;DHT22;322;48.846;9.230;2024-03-25T13:50:44;22.40;38.90
680;DHT22;322;48.846;9.230;2024-03-25T13:53:11;22.70;36.50
680;DHT22;322;48.846;9.230;2024-03-25T13:55:37;22.50;36.10
680;DHT22;322;48.846;9.230;2024-03-25T13:58:03;20.20;38.00
680;DHT22;322;48.846;9.230;2024-03-25T14:00:29;19.70;40.50
680;DHT22;322;48.846;9.230;2024-03-25T14:02:56;20.30;40.80
680;DHT22;322;48.846;9.230;2024-03-25T14:05:22;20.90;39.50
680;DHT22;322;48.846;9.230;2024-03-25T14:07:50;21.10;37.60
680;DHT22;322;48.846;9.230;2024-03-25T14:10:16;21.90;40.00
680;DHT22;322;48.846;9.230;2024-03-25T14:12:42;22.30;39.30
680;DHT22;322;48.846;9.230;2024-03-25T14:15:09;21.70;37.00
680;DHT22;322;48.846;9.230;2024-03-25T14:17:35;20.50;39.80
680;DHT22;322;48.846;9.230;2024-03-25T14:20:01;19.10;40.20
680;DHT22;322;48.846;9.230;2024-03-25T14:22:28;18.00;41.30
680;DHT22;322;48.846;9.230;2024-03-25T14:24:55;16.80;43.30
680;DHT22;322;48.846;9.230;2024-03-25T14:27:22;16.40;41.80
680;DHT22;322;48.846;9.230;2024-03-25T14:29:48;16.10;44.50
680;DHT22;322;48.846;9.230;2024-03-25T14:32:14;16.20;44.70
680;DHT22;322;48.846;9.230;2024-03-25T14:34:40;16.30;45.90
680;DHT22;322;48.846;9.230;2024-03-25T14:37:07;16.90;44.80
680;DHT22;322;48.846;9.230;2024-03-25T14:39:33;18.00;44.40
680;DHT22;322;48.846;9.230;2024-03-25T14:42:00;19.40;42.60
680;DHT22;322;48.846;9.230;2024-03-25T14:44:26;20.60;41.20
680;DHT22;322;48.846;9.230;2024-03-25T14:46:52;21.40;40.60
680;DHT22;322;48.846;9.230;2024-03-25T14:49:18;22.00;37.10
680;DHT22;322;48.846;9.230;2024-03-25T14:51:44;21.70;36.80
680;DHT22;322;48.846;9.230;2024-03-25T14:54:10;21.40;39.70
680;DHT22;322;48.846;9.230;2024-03-25T14:56:36;21.30;40.20
680;DHT22;322;48.846;9.230;2024-03-25T14:59:04;21.80;39.00
680;DHT22;322;48.846;9.230;2024-03-25T15:01:30;22.70;37.20
680;DHT22;322;48.846;9.230;2024-03-25T15:03:56;23.10;37.90
680;DHT22;322;48.846;9.230;2024-03-25T15:06:22;23.70;36.70
680;DHT22;322;48.846;9.230;2024-03-25T15:08:48;24.00;35.90
680;DHT22;322;48.846;9.230;2024-03-25T15:11:14;23.90;36.30
680;DHT22;322;48.846;9.230;2024-03-25T15:13:40;22.80;37.00
680;DHT22;322;48.846;9.230;2024-03-25T15:16:08;22.20;37.50
680;DHT22;322;48.846;9.230;2024-03-25T15:18:34;21.90;37.90
680;DHT22;322;48.846;9.230;2024-03-25T15:21:01;21.30;38.80
680;DHT22;322;48.846;9.230;2024-03-25T15:23:27;21.40;39.10
680;DHT22;322;48.846;9.230;2024-03-25T15:25:53;21.60;37.70
680;DHT22;322;48.846;9.230;2024-03-25T15:28:19;21.30;38.40
680;DHT22;322;48.846;9.230;2024-03-25T15:30:46;21.30;38.10
680;DHT22;322;48.846;9.230;2024-03-25T15:33:14;21.00;37.00
680;DHT22;322;48.846;9.230;2024-03-25T15:35:40;21.00;38.70
680;DHT22;322;48.846;9.230;2024-03-25T15:38:06;20.40;37.20
680;DHT22;322;48.846;9.230;2024-03-25T15:40:32;19.90;40.20
680;DHT22;322;48.846;9.230;2024-03-25T15:42:59;20.00;39.60
680;DHT22;322;48.846;9.230;2024-03-25T15:45:25;19.60;39.70
680;DHT22;322;48.846;9.230;2024-03-25T15:47:51;19.00;39.70
680;DHT22;322;48.846;9.230;2024-03-25T15:50:19;18.30;40.20
680;DHT22;322;48.846;9.230;2024-03-25T15:52:45;17.50;42.70
680;DHT22;322;48.846;9.230;2024-03-25T15:55:11;17.10;41.80
680;DHT22;322;48.846;9.230;2024-03-25T15:57:37;16.60;43.30
680;DHT22;322;48.846;9.230;2024-03-25T16:00:04;16.30;44.10
680;DHT22;322;48.846;9.230;2024-03-25T16:02:30;16.10;44.70
680;DHT22;322;48.846;9.230;2024-03-25T16:04:57;15.80;43.50
680;DHT22;322;48.846;9.230;2024-03-25T16:07:24;15.70;44.20
680;DHT22;322;48.846;9.230;2024-03-25T16:09:50;15.40;44.20
680;DHT22;322;48.846;9.230;2024-03-25T16:12:17;15.00;44.80
680;DHT22;322;48.846;9.230;2024-03-25T16:14:43;14.80;45.70
680;DHT22;322;48.846;9.230;2024-03-25T16:17:09;14.80;44.90
680;DHT22;322;48.846;9.230;2024-03-25T16:19:36;14.80;45.50
680;DHT22;322;48.846;9.230;2024-03-25T16:22:02;14.60;44.90
680;DHT22;322;48.846;9.230;2024-03-25T16:24:29;14.60;46.20
680;DHT22;322;48.846;9.230;2024-03-25T16:26:55;14.40;46.10
680;DHT22;322;48.846;9.230;2024-03-25T16:29:21;14.10;46.90
680;DHT22;322;48.846;9.230;2024-03-25T16:31:47;14.00;48.20
680;DHT22;322;48.846;9.230;2024-03-25T16:34:13;14.00;48.80
680;DHT22;322;48.846;9.230;2024-03-25T16:36:39;13.80;48.10
680;DHT22;322;48.846;9.230;2024-03-25T16:39:05;13.60;47.90
680;DHT22;322;48.846;9.230;2024-03-25T16:41:33;13.50;47.30